sensor_id;sensor_type;location;lat;lon;timestamp;P1;durP1;ratioP1;P2;durP2;ratioP2
24650;SDS011;12783;48.824;8.662;2024-01-30T00:00:25;1.95;;;1.30;;
24650;SDS011;12783;48.824;8.662;2024-01-30T00:02:52;2.88;;;1.42;;
24650;SDS011;12783;48.824;8.662;2024-01-30T00:05:19;2.45;;;1.25;;
24650;SDS011;12783;48.824;8.662;2024-01-30T00:07:45;2.40;;;1.30;;
24650;SDS011;12783;48.824;8.662;2024-01-30T00:10:12;2.42;;;1.20;;
24650;SDS011;12783;48.824;8.662;2024-01-30T00:12:39;2.67;;;1.25;;
24650;SDS011;12783;48.824;8.662;2024-01-30T00:15:06;1.52;;;1.15;;
24650;SDS011;12783;48.824;8.662;2024-01-30T00:17:36;1.80;;;1.27;;
24650;SDS011;12783;48.824;8.662;2024-01-30T00:20:04;9.10;;;4.00;;
24650;SDS011;12783;48.824;8.662;2024-01-30T00:22:32;12.23;;;5.18;;
24650;SDS011;12783;48.824;8.662;2024-01-30T00:24:59;7.00;;;2.92;;
24650;SDS011;12783;48.824;8.662;2024-01-30T00:27:26;3.70;;;1.95;;
24650;SDS011;12783;48.824;8.662;2024-01-30T00:29:54;4.13;;;1.77;;
24650;SDS011;12783;48.824;8.662;2024-01-30T00:32:20;3.03;;;1.50;;
24650;SDS011;12783;48.824;8.662;2024-01-30T00:34:49;2.53;;;1.23;;
24650;SDS011;12783;48.824;8.662;2024-01-30T00:37:16;2.42;;;1.30;;
24650;SDS011;12783;48.824;8.662;2024-01-30T00:39:43;3.22;;;1.40;;
24650;SDS011;12783;48.824;8.662;2024-01-30T00:42:10;2.17;;;1.40;;
24650;SDS011;12783;48.824;8.662;2024-01-30T00:44:36;2.10;;;1.30;;
24650;SDS011;12783;48.824;8.662;2024-01-30T00:47:05;2.58;;;1.30;;
24650;SDS011;12783;48.824;8.662;2024-01-30T00:49:32;1.40;;;1.20;;
24650;SDS011;12783;48.824;8.662;2024-01-30T00:51:59;3.35;;;1.13;;
24650;SDS011;12783;48.824;8.662;2024-01-30T00:54:27;1.70;;;0.95;;
24650;SDS011;12783;48.824;8.662;2024-01-30T00:56:54;1.88;;;1.17;;
24650;SDS011;12783;48.824;8.662;2024-01-30T00:59:21;2.22;;;1.20;;
24650;SDS011;12783;48.824;8.662;2024-01-30T01:01:47;1.17;;;1.00;;
24650;SDS011;12783;48.824;8.662;2024-01-30T01:04:14;2.85;;;1.40;;
24650;SDS011;12783;48.824;8.662;2024-01-30T01:06:42;2.42;;;1.42;;
24650;SDS011;12783;48.824;8.662;2024-01-30T01:09:11;2.30;;;1.23;;
24650;SDS011;12783;48.824;8.662;2024-01-30T01:11:38;1.55;;;1.27;;
24650;SDS011;12783;48.824;8.662;2024-01-30T01:14:05;1.50;;;1.08;;
24650;SDS011;12783;48.824;8.662;2024-01-30T01:16:33;2.38;;;1.40;;
24650;SDS011;12783;48.824;8.662;2024-01-30T01:19:00;2.17;;;1.20;;
24650;SDS011;12783;48.824;8.662;2024-01-30T01:21:27;3.15;;;1.60;;
24650;SDS011;12783;48.824;8.662;2024-01-30T01:23:54;1.85;;;1.20;;
24650;SDS011;12783;48.824;8.662;2024-01-30T01:26:21;1.90;;;1.23;;
24650;SDS011;12783;48.824;8.662;2024-01-30T01:28:48;4.97;;;1.00;;
24650;SDS011;12783;48.824;8.662;2024-01-30T01:31:15;1.75;;;1.20;;
24650;SDS011;12783;48.824;8.662;2024-01-30T01:33:44;2.42;;;1.10;;
24650;SDS011;12783;48.824;8.662;2024-01-30T01:36:13;3.05;;;1.15;;
24650;SDS011;12783;48.824;8.662;2024-01-30T01:38:40;1.50;;;1.20;;
24650;SDS011;12783;48.824;8.662;2024-01-30T01:41:07;2.28;;;1.20;;
24650;SDS011;12783;48.824;8.662;2024-01-30T01:43:34;2.78;;;1.05;;
24650;SDS011;12783;48.824;8.662;2024-01-30T01:46:01;2.83;;;1.35;;
24650;SDS011;12783;48.824;8.662;2024-01-30T01:48:29;2.10;;;1.35;;
24650;SDS011;12783;48.824;8.662;2024-01-30T01:50:57;2.22;;;1.30;;
24650;SDS011;12783;48.824;8.662;2024-01-30T01:53:25;2.42;;;1.17;;
24650;SDS011;12783;48.824;8.662;2024-01-30T01:55:52;2.70;;;1.27;;
24650;SDS011;12783;48.824;8.662;2024-01-30T01:58:21;1.10;;;1.00;;
24650;SDS011;12783;48.824;8.662;2024-01-30T02:00:50;2.97;;;1.20;;
24650;SDS011;12783;48.824;8.662;2024-01-30T02:03:18;2.25;;;1.42;;
24650;SDS011;12783;48.824;8.662;2024-01-30T02:05:48;2.25;;;1.30;;
24650;SDS011;12783;48.824;8.662;2024-01-30T02:08:16;3.15;;;1.30;;
24650;SDS011;12783;48.824;8.662;2024-01-30T02:10:43;2.78;;;1.40;;
24650;SDS011;12783;48.824;8.662;2024-01-30T02:13:10;1.75;;;0.93;;
24650;SDS011;12783;48.824;8.662;2024-01-30T02:15:37;2.70;;;1.30;;
24650;SDS011;12783;48.824;8.662;2024-01-30T02:18:04;2.20;;;1.10;;
24650;SDS011;12783;48.824;8.662;2024-01-30T02:20:31;2.75;;;1.30;;
24650;SDS011;12783;48.824;8.662;2024-01-30T02:23:01;1.52;;;1.15;;
24650;SDS011;12783;48.824;8.662;2024-01-30T02:25:39;2.95;;;1.25;;
24650;SDS011;12783;48.824;8.662;2024-01-30T02:28:11;2.22;;;1.17;;
24650;SDS011;12783;48.824;8.662;2024-01-30T02:30:44;3.92;;;1.27;;
24650;SDS011;12783;48.824;8.662;2024-01-30T02:33:12;2.72;;;1.35;;
24650;SDS011;12783;48.824;8.662;2024-01-30T02:35:39;2.00;;;1.20;;
24650;SDS011;12783;48.824;8.662;2024-01-30T02:38:06;1.23;;;1.05;;
24650;SDS011;12783;48.824;8.662;2024-01-30T02:40:33;2.65;;;1.20;;
24650;SDS011;12783;48.824;8.662;2024-01-30T02:43:01;2.22;;;1.20;;
24650;SDS011;12783;48.824;8.662;2024-01-30T02:45:29;2.17;;;1.25;;
24650;SDS011;12783;48.824;8.662;2024-01-30T02:47:56;3.28;;;1.27;;
24650;SDS011;12783;48.824;8.662;2024-01-30T02:50:23;1.83;;;1.27;;
24650;SDS011;12783;48.824;8.662;2024-01-30T02:52:50;1.23;;;1.05;;
24650;SDS011;12783;48.824;8.662;2024-01-30T02:55:17;1.55;;;1.30;;
24650;SDS011;12783;48.824;8.662;2024-01-30T02:57:45;2.38;;;1.23;;
24650;SDS011;12783;48.824;8.662;2024-01-30T03:00:12;1.60;;;1.13;;
24650;SDS011;12783;48.824;8.662;2024-01-30T03:02:39;1.23;;;1.02;;
24650;SDS011;12783;48.824;8.662;2024-01-30T03:05:07;2.58;;;1.10;;
24650;SDS011;12783;48.824;8.662;2024-01-30T03:07:35;1.92;;;1.23;;
24650;SDS011;12783;48.824;8.662;2024-01-30T03:10:02;1.23;;;1.00;;
24650;SDS011;12783;48.824;8.662;2024-01-30T03:12:31;2.22;;;1.30;;
24650;SDS011;12783;48.824;8.662;2024-01-30T03:14:58;2.72;;;1.25;;
24650;SDS011;12783;48.824;8.662;2024-01-30T03:17:25;3.55;;;1.30;;
24650;SDS011;12783;48.824;8.662;2024-01-30T03:19:52;3.65;;;1.20;;
24650;SDS011;12783;48.824;8.662;2024-01-30T03:22:18;2.85;;;1.23;;
24650;SDS011;12783;48.824;8.662;2024-01-30T03:24:45;2.47;;;1.30;;
24650;SDS011;12783;48.824;8.662;2024-01-30T03:27:12;1.77;;;1.40;;
24650;SDS011;12783;48.824;8.662;2024-01-30T03:29:39;2.08;;;1.30;;
24650;SDS011;12783;48.824;8.662;2024-01-30T03:32:06;3.53;;;1.35;;
24650;SDS011;12783;48.824;8.662;2024-01-30T03:34:33;2.08;;;1.35;;
24650;SDS011;12783;48.824;8.662;2024-01-30T03:37:00;2.25;;;1.25;;
24650;SDS011;12783;48.824;8.662;2024-01-30T03:39:27;2.75;;;1.27;;
24650;SDS011;12783;48.824;8.662;2024-01-30T03:41:54;1.40;;;1.10;;
24650;SDS011;12783;48.824;8.662;2024-01-30T03:44:20;1.92;;;1.35;;
24650;SDS011;12783;48.824;8.662;2024-01-30T03:46:47;2.33;;;1.35;;
24650;SDS011;12783;48.824;8.662;2024-01-30T03:49:14;3.17;;;1.10;;
24650;SDS011;12783;48.824;8.662;2024-01-30T03:51:41;2.50;;;1.27;;
24650;SDS011;12783;48.824;8.662;2024-01-30T03:54:08;2.65;;;1.40;;
24650;SDS011;12783;48.824;8.662;2024-01-30T03:56:36;1.67;;;1.00;;
24650;SDS011;12783;48.824;8.662;2024-01-30T03:59:02;2.65;;;1.27;;
24650;SDS011;12783;48.824;8.662;2024-01-30T04:01:29;2.35;;;1.30;;
24650;SDS011;12783;48.824;8.662;2024-01-30T04:03:56;2.60;;;1.40;;
24650;SDS011;12783;48.824;8.662;2024-01-30T04:06:23;1.40;;;1.27;;
24650;SDS011;12783;48.824;8.662;2024-01-30T04:08:50;2.55;;;1.48;;
24650;SDS011;12783;48.824;8.662;2024-01-30T04:11:20;1.17;;;1.00;;
24650;SDS011;12783;48.824;8.662;2024-01-30T04:13:47;1.30;;;1.20;;
24650;SDS011;12783;48.824;8.662;2024-01-30T04:16:23;3.10;;;1.40;;
24650;SDS011;12783;48.824;8.662;2024-01-30T04:18:51;2.00;;;1.25;;
24650;SDS011;12783;48.824;8.662;2024-01-30T04:21:20;2.42;;;1.30;;
24650;SDS011;12783;48.824;8.662;2024-01-30T04:23:48;5.20;;;1.20;;
24650;SDS011;12783;48.824;8.662;2024-01-30T04:26:15;2.00;;;1.30;;
24650;SDS011;12783;48.824;8.662;2024-01-30T04:28:42;1.05;;;0.90;;
24650;SDS011;12783;48.824;8.662;2024-01-30T04:31:11;1.92;;;1.20;;
24650;SDS011;12783;48.824;8.662;2024-01-30T04:33:38;2.88;;;1.13;;
24650;SDS011;12783;48.824;8.662;2024-01-30T04:36:07;2.70;;;1.45;;
24650;SDS011;12783;48.824;8.662;2024-01-30T04:38:38;2.33;;;1.08;;
24650;SDS011;12783;48.824;8.662;2024-01-30T04:41:05;2.95;;;1.30;;
24650;SDS011;12783;48.824;8.662;2024-01-30T04:43:33;2.88;;;1.17;;
24650;SDS011;12783;48.824;8.662;2024-01-30T04:46:00;2.05;;;1.25;;
24650;SDS011;12783;48.824;8.662;2024-01-30T04:48:28;2.88;;;1.60;;
24650;SDS011;12783;48.824;8.662;2024-01-30T04:50:55;4.63;;;1.70;;
24650;SDS011;12783;48.824;8.662;2024-01-30T04:53:23;2.35;;;1.77;;
24650;SDS011;12783;48.824;8.662;2024-01-30T04:55:50;3.17;;;1.70;;
24650;SDS011;12783;48.824;8.662;2024-01-30T04:58:17;3.20;;;1.20;;
24650;SDS011;12783;48.824;8.662;2024-01-30T05:00:44;2.08;;;1.30;;
24650;SDS011;12783;48.824;8.662;2024-01-30T05:03:13;3.50;;;1.40;;
24650;SDS011;12783;48.824;8.662;2024-01-30T05:05:40;1.90;;;1.30;;
24650;SDS011;12783;48.824;8.662;2024-01-30T05:08:07;2.50;;;1.20;;
24650;SDS011;12783;48.824;8.662;2024-01-30T05:10:34;2.47;;;1.25;;
24650;SDS011;12783;48.824;8.662;2024-01-30T05:13:01;7.82;;;3.05;;
24650;SDS011;12783;48.824;8.662;2024-01-30T05:15:28;11.57;;;4.50;;
24650;SDS011;12783;48.824;8.662;2024-01-30T05:17:55;12.10;;;4.50;;
24650;SDS011;12783;48.824;8.662;2024-01-30T05:20:21;12.38;;;4.63;;
24650;SDS011;12783;48.824;8.662;2024-01-30T05:22:48;31.65;;;11.55;;
24650;SDS011;12783;48.824;8.662;2024-01-30T05:25:15;45.67;;;15.88;;
24650;SDS011;12783;48.824;8.662;2024-01-30T05:27:42;27.38;;;10.30;;
24650;SDS011;12783;48.824;8.662;2024-01-30T05:30:09;17.08;;;5.72;;
24650;SDS011;12783;48.824;8.662;2024-01-30T05:32:37;12.68;;;4.45;;
24650;SDS011;12783;48.824;8.662;2024-01-30T05:35:04;8.40;;;2.40;;
24650;SDS011;12783;48.824;8.662;2024-01-30T05:37:31;3.00;;;1.60;;
24650;SDS011;12783;48.824;8.662;2024-01-30T05:39:58;3.80;;;1.45;;
24650;SDS011;12783;48.824;8.662;2024-01-30T05:42:25;3.05;;;1.48;;
24650;SDS011;12783;48.824;8.662;2024-01-30T05:44:53;0.90;;;0.88;;
24650;SDS011;12783;48.824;8.662;2024-01-30T05:47:20;3.22;;;1.42;;
24650;SDS011;12783;48.824;8.662;2024-01-30T05:49:47;2.22;;;1.20;;
24650;SDS011;12783;48.824;8.662;2024-01-30T05:52:14;2.10;;;1.23;;
24650;SDS011;12783;48.824;8.662;2024-01-30T05:54:41;3.25;;;1.58;;
24650;SDS011;12783;48.824;8.662;2024-01-30T05:57:09;2.63;;;2.00;;
24650;SDS011;12783;48.824;8.662;2024-01-30T05:59:36;4.03;;;2.58;;
24650;SDS011;12783;48.824;8.662;2024-01-30T06:02:07;4.82;;;2.40;;
24650;SDS011;12783;48.824;8.662;2024-01-30T06:04:34;4.75;;;2.10;;
24650;SDS011;12783;48.824;8.662;2024-01-30T06:07:01;3.05;;;1.55;;
24650;SDS011;12783;48.824;8.662;2024-01-30T06:09:29;3.00;;;1.35;;
24650;SDS011;12783;48.824;8.662;2024-01-30T06:11:56;2.33;;;1.60;;
24650;SDS011;12783;48.824;8.662;2024-01-30T06:14:22;1.70;;;1.42;;
24650;SDS011;12783;48.824;8.662;2024-01-30T06:16:50;3.53;;;1.40;;
24650;SDS011;12783;48.824;8.662;2024-01-30T06:19:16;2.75;;;1.40;;
24650;SDS011;12783;48.824;8.662;2024-01-30T06:21:44;3.08;;;1.20;;
24650;SDS011;12783;48.824;8.662;2024-01-30T06:24:11;1.65;;;1.00;;
24650;SDS011;12783;48.824;8.662;2024-01-30T06:26:38;1.77;;;1.27;;
24650;SDS011;12783;48.824;8.662;2024-01-30T06:29:05;2.10;;;1.40;;
24650;SDS011;12783;48.824;8.662;2024-01-30T06:31:39;1.20;;;1.10;;
24650;SDS011;12783;48.824;8.662;2024-01-30T06:34:08;2.67;;;1.25;;
24650;SDS011;12783;48.824;8.662;2024-01-30T06:36:36;1.83;;;1.33;;
24650;SDS011;12783;48.824;8.662;2024-01-30T06:39:03;1.35;;;1.10;;
24650;SDS011;12783;48.824;8.662;2024-01-30T06:41:30;2.00;;;1.25;;
24650;SDS011;12783;48.824;8.662;2024-01-30T06:43:57;1.77;;;1.48;;
24650;SDS011;12783;48.824;8.662;2024-01-30T06:46:24;2.83;;;1.50;;
24650;SDS011;12783;48.824;8.662;2024-01-30T06:48:51;2.42;;;1.30;;
24650;SDS011;12783;48.824;8.662;2024-01-30T06:51:18;2.53;;;1.58;;
24650;SDS011;12783;48.824;8.662;2024-01-30T06:53:45;3.58;;;1.35;;
24650;SDS011;12783;48.824;8.662;2024-01-30T06:56:12;1.98;;;1.52;;
24650;SDS011;12783;48.824;8.662;2024-01-30T06:58:39;1.73;;;1.50;;
24650;SDS011;12783;48.824;8.662;2024-01-30T07:01:06;1.90;;;1.48;;
24650;SDS011;12783;48.824;8.662;2024-01-30T07:03:33;3.95;;;2.08;;
24650;SDS011;12783;48.824;8.662;2024-01-30T07:06:00;4.82;;;2.60;;
24650;SDS011;12783;48.824;8.662;2024-01-30T07:08:27;8.13;;;3.00;;
24650;SDS011;12783;48.824;8.662;2024-01-30T07:10:54;4.88;;;2.28;;
24650;SDS011;12783;48.824;8.662;2024-01-30T07:13:27;5.13;;;2.22;;
24650;SDS011;12783;48.824;8.662;2024-01-30T07:15:55;8.38;;;2.40;;
24650;SDS011;12783;48.824;8.662;2024-01-30T07:18:22;4.85;;;2.17;;
24650;SDS011;12783;48.824;8.662;2024-01-30T07:20:49;5.38;;;2.20;;
24650;SDS011;12783;48.824;8.662;2024-01-30T07:23:16;2.35;;;1.63;;
24650;SDS011;12783;48.824;8.662;2024-01-30T07:25:44;3.33;;;1.70;;
24650;SDS011;12783;48.824;8.662;2024-01-30T07:28:14;2.20;;;1.48;;
24650;SDS011;12783;48.824;8.662;2024-01-30T07:30:44;5.03;;;2.10;;
24650;SDS011;12783;48.824;8.662;2024-01-30T07:33:12;3.60;;;1.85;;
24650;SDS011;12783;48.824;8.662;2024-01-30T07:35:39;4.93;;;2.00;;
24650;SDS011;12783;48.824;8.662;2024-01-30T07:38:06;2.42;;;1.70;;
24650;SDS011;12783;48.824;8.662;2024-01-30T07:40:33;3.03;;;1.92;;
24650;SDS011;12783;48.824;8.662;2024-01-30T07:43:00;4.40;;;1.67;;
24650;SDS011;12783;48.824;8.662;2024-01-30T07:45:29;3.60;;;1.52;;
24650;SDS011;12783;48.824;8.662;2024-01-30T07:47:59;4.43;;;1.65;;
24650;SDS011;12783;48.824;8.662;2024-01-30T07:50:27;2.67;;;1.55;;
24650;SDS011;12783;48.824;8.662;2024-01-30T07:52:59;2.38;;;1.50;;
24650;SDS011;12783;48.824;8.662;2024-01-30T07:55:26;2.55;;;1.70;;
24650;SDS011;12783;48.824;8.662;2024-01-30T07:57:55;4.07;;;1.60;;
24650;SDS011;12783;48.824;8.662;2024-01-30T08:00:22;4.82;;;1.88;;
24650;SDS011;12783;48.824;8.662;2024-01-30T08:02:50;3.58;;;1.83;;
24650;SDS011;12783;48.824;8.662;2024-01-30T08:05:17;4.25;;;2.00;;
24650;SDS011;12783;48.824;8.662;2024-01-30T08:07:44;3.85;;;1.67;;
24650;SDS011;12783;48.824;8.662;2024-01-30T08:10:12;3.88;;;1.80;;
24650;SDS011;12783;48.824;8.662;2024-01-30T08:12:39;3.20;;;1.65;;
24650;SDS011;12783;48.824;8.662;2024-01-30T08:15:07;2.42;;;1.50;;
24650;SDS011;12783;48.824;8.662;2024-01-30T08:17:34;3.00;;;1.48;;
24650;SDS011;12783;48.824;8.662;2024-01-30T08:20:01;4.43;;;2.10;;
24650;SDS011;12783;48.824;8.662;2024-01-30T08:22:30;4.25;;;2.13;;
24650;SDS011;12783;48.824;8.662;2024-01-30T08:24:57;3.03;;;1.90;;
24650;SDS011;12783;48.824;8.662;2024-01-30T08:27:24;6.45;;;2.67;;
24650;SDS011;12783;48.824;8.662;2024-01-30T08:29:51;6.57;;;2.67;;
24650;SDS011;12783;48.824;8.662;2024-01-30T08:32:18;5.45;;;2.60;;
24650;SDS011;12783;48.824;8.662;2024-01-30T08:34:45;5.53;;;2.25;;
24650;SDS011;12783;48.824;8.662;2024-01-30T08:37:12;6.30;;;2.20;;
24650;SDS011;12783;48.824;8.662;2024-01-30T08:39:43;5.22;;;1.67;;
24650;SDS011;12783;48.824;8.662;2024-01-30T08:42:10;3.95;;;1.70;;
24650;SDS011;12783;48.824;8.662;2024-01-30T08:44:37;3.42;;;1.60;;
24650;SDS011;12783;48.824;8.662;2024-01-30T08:47:05;2.25;;;1.60;;
24650;SDS011;12783;48.824;8.662;2024-01-30T08:49:32;3.00;;;1.38;;
24650;SDS011;12783;48.824;8.662;2024-01-30T08:51:59;2.67;;;1.33;;
24650;SDS011;12783;48.824;8.662;2024-01-30T08:54:26;5.80;;;1.38;;
24650;SDS011;12783;48.824;8.662;2024-01-30T08:56:53;4.80;;;1.50;;
24650;SDS011;12783;48.824;8.662;2024-01-30T08:59:22;4.00;;;1.33;;
24650;SDS011;12783;48.824;8.662;2024-01-30T09:01:49;3.50;;;1.40;;
24650;SDS011;12783;48.824;8.662;2024-01-30T09:04:32;1.92;;;1.10;;
24650;SDS011;12783;48.824;8.662;2024-01-30T09:06:59;2.50;;;1.27;;
24650;SDS011;12783;48.824;8.662;2024-01-30T09:09:26;2.08;;;1.30;;
24650;SDS011;12783;48.824;8.662;2024-01-30T09:11:53;3.10;;;1.20;;
24650;SDS011;12783;48.824;8.662;2024-01-30T09:14:21;3.05;;;1.30;;
24650;SDS011;12783;48.824;8.662;2024-01-30T09:16:48;3.40;;;1.48;;
24650;SDS011;12783;48.824;8.662;2024-01-30T09:19:15;3.17;;;1.42;;
24650;SDS011;12783;48.824;8.662;2024-01-30T09:21:42;3.08;;;1.40;;
24650;SDS011;12783;48.824;8.662;2024-01-30T09:24:09;3.05;;;1.65;;
24650;SDS011;12783;48.824;8.662;2024-01-30T09:26:36;2.45;;;1.70;;
24650;SDS011;12783;48.824;8.662;2024-01-30T09:29:03;4.47;;;1.77;;
24650;SDS011;12783;48.824;8.662;2024-01-30T09:31:30;4.65;;;2.63;;
24650;SDS011;12783;48.824;8.662;2024-01-30T09:33:58;4.20;;;2.00;;
24650;SDS011;12783;48.824;8.662;2024-01-30T09:36:25;6.07;;;2.05;;
24650;SDS011;12783;48.824;8.662;2024-01-30T09:38:52;2.90;;;1.80;;
24650;SDS011;12783;48.824;8.662;2024-01-30T09:41:19;7.97;;;1.90;;
24650;SDS011;12783;48.824;8.662;2024-01-30T09:43:47;2.35;;;1.50;;
24650;SDS011;12783;48.824;8.662;2024-01-30T09:46:16;2.47;;;1.50;;
24650;SDS011;12783;48.824;8.662;2024-01-30T09:48:47;2.35;;;1.60;;
24650;SDS011;12783;48.824;8.662;2024-01-30T09:51:16;2.88;;;1.38;;
24650;SDS011;12783;48.824;8.662;2024-01-30T09:53:44;2.65;;;1.30;;
24650;SDS011;12783;48.824;8.662;2024-01-30T09:56:12;1.63;;;1.30;;
24650;SDS011;12783;48.824;8.662;2024-01-30T09:58:39;1.65;;;1.25;;
24650;SDS011;12783;48.824;8.662;2024-01-30T10:01:06;2.03;;;1.17;;
24650;SDS011;12783;48.824;8.662;2024-01-30T10:03:33;2.50;;;1.60;;
24650;SDS011;12783;48.824;8.662;2024-01-30T10:06:01;2.15;;;1.48;;
24650;SDS011;12783;48.824;8.662;2024-01-30T10:08:28;2.15;;;1.30;;
24650;SDS011;12783;48.824;8.662;2024-01-30T10:10:56;5.57;;;1.70;;
24650;SDS011;12783;48.824;8.662;2024-01-30T10:13:25;3.10;;;1.80;;
24650;SDS011;12783;48.824;8.662;2024-01-30T10:15:53;3.40;;;2.28;;
24650;SDS011;12783;48.824;8.662;2024-01-30T10:18:24;4.80;;;2.40;;
24650;SDS011;12783;48.824;8.662;2024-01-30T10:20:52;5.47;;;2.10;;
24650;SDS011;12783;48.824;8.662;2024-01-30T10:23:19;3.30;;;1.75;;
24650;SDS011;12783;48.824;8.662;2024-01-30T10:25:46;3.70;;;2.10;;
24650;SDS011;12783;48.824;8.662;2024-01-30T10:28:13;4.97;;;2.20;;
24650;SDS011;12783;48.824;8.662;2024-01-30T10:30:40;4.72;;;1.75;;
24650;SDS011;12783;48.824;8.662;2024-01-30T10:33:07;3.53;;;2.03;;
24650;SDS011;12783;48.824;8.662;2024-01-30T10:35:34;4.03;;;1.92;;
24650;SDS011;12783;48.824;8.662;2024-01-30T10:38:02;4.22;;;1.98;;
24650;SDS011;12783;48.824;8.662;2024-01-30T10:40:32;5.13;;;2.00;;
24650;SDS011;12783;48.824;8.662;2024-01-30T10:43:02;3.15;;;1.85;;
24650;SDS011;12783;48.824;8.662;2024-01-30T10:45:31;4.43;;;1.80;;
24650;SDS011;12783;48.824;8.662;2024-01-30T10:47:59;5.20;;;1.95;;
24650;SDS011;12783;48.824;8.662;2024-01-30T10:50:27;4.25;;;1.70;;
24650;SDS011;12783;48.824;8.662;2024-01-30T10:52:57;3.05;;;1.90;;
24650;SDS011;12783;48.824;8.662;2024-01-30T10:55:25;2.58;;;1.45;;
24650;SDS011;12783;48.824;8.662;2024-01-30T10:57:55;1.85;;;1.30;;
24650;SDS011;12783;48.824;8.662;2024-01-30T11:00:22;6.00;;;1.40;;
24650;SDS011;12783;48.824;8.662;2024-01-30T11:02:50;2.03;;;1.40;;
24650;SDS011;12783;48.824;8.662;2024-01-30T11:05:25;3.05;;;1.52;;
24650;SDS011;12783;48.824;8.662;2024-01-30T11:07:59;2.22;;;1.30;;
24650;SDS011;12783;48.824;8.662;2024-01-30T11:10:44;2.58;;;1.30;;
24650;SDS011;12783;48.824;8.662;2024-01-30T11:13:13;4.07;;;1.33;;
24650;SDS011;12783;48.824;8.662;2024-01-30T11:15:41;2.42;;;1.50;;
24650;SDS011;12783;48.824;8.662;2024-01-30T11:18:08;1.25;;;1.00;;
24650;SDS011;12783;48.824;8.662;2024-01-30T11:20:35;2.70;;;1.60;;
24650;SDS011;12783;48.824;8.662;2024-01-30T11:23:02;4.13;;;1.73;;
24650;SDS011;12783;48.824;8.662;2024-01-30T11:25:33;67.63;;;25.05;;
24650;SDS011;12783;48.824;8.662;2024-01-30T11:28:00;85.47;;;34.72;;
24650;SDS011;12783;48.824;8.662;2024-01-30T11:30:28;89.10;;;32.95;;
24650;SDS011;12783;48.824;8.662;2024-01-30T11:33:03;8.85;;;4.07;;
24650;SDS011;12783;48.824;8.662;2024-01-30T11:35:43;4.78;;;1.98;;
24650;SDS011;12783;48.824;8.662;2024-01-30T11:38:13;3.20;;;1.80;;
24650;SDS011;12783;48.824;8.662;2024-01-30T11:40:41;2.10;;;1.55;;
24650;SDS011;12783;48.824;8.662;2024-01-30T11:43:11;2.22;;;1.42;;
24650;SDS011;12783;48.824;8.662;2024-01-30T11:45:38;4.95;;;1.63;;
24650;SDS011;12783;48.824;8.662;2024-01-30T11:48:06;4.65;;;1.70;;
24650;SDS011;12783;48.824;8.662;2024-01-30T11:50:37;2.80;;;1.63;;
24650;SDS011;12783;48.824;8.662;2024-01-30T11:53:05;2.28;;;1.50;;
24650;SDS011;12783;48.824;8.662;2024-01-30T11:55:32;3.92;;;1.67;;
24650;SDS011;12783;48.824;8.662;2024-01-30T11:58:01;1.40;;;1.30;;
24650;SDS011;12783;48.824;8.662;2024-01-30T12:00:29;3.97;;;1.58;;
24650;SDS011;12783;48.824;8.662;2024-01-30T12:03:01;3.40;;;1.45;;
24650;SDS011;12783;48.824;8.662;2024-01-30T12:05:30;4.72;;;2.00;;
24650;SDS011;12783;48.824;8.662;2024-01-30T12:07:58;2.33;;;1.63;;
24650;SDS011;12783;48.824;8.662;2024-01-30T12:10:27;5.88;;;3.53;;
24650;SDS011;12783;48.824;8.662;2024-01-30T12:12:55;3.17;;;2.17;;
24650;SDS011;12783;48.824;8.662;2024-01-30T12:15:23;2.50;;;1.80;;
24650;SDS011;12783;48.824;8.662;2024-01-30T12:17:51;5.53;;;1.75;;
24650;SDS011;12783;48.824;8.662;2024-01-30T12:20:18;16.30;;;8.98;;
24650;SDS011;12783;48.824;8.662;2024-01-30T12:22:49;6.57;;;3.75;;
24650;SDS011;12783;48.824;8.662;2024-01-30T12:25:17;16.67;;;11.93;;
24650;SDS011;12783;48.824;8.662;2024-01-30T12:27:48;5.22;;;4.13;;
24650;SDS011;12783;48.824;8.662;2024-01-30T12:30:19;5.07;;;2.00;;
24650;SDS011;12783;48.824;8.662;2024-01-30T12:32:51;4.65;;;2.10;;
24650;SDS011;12783;48.824;8.662;2024-01-30T12:35:19;8.40;;;4.30;;
24650;SDS011;12783;48.824;8.662;2024-01-30T12:37:48;2.95;;;2.38;;
24650;SDS011;12783;48.824;8.662;2024-01-30T12:40:16;1.92;;;1.52;;
24650;SDS011;12783;48.824;8.662;2024-01-30T12:42:45;2.95;;;1.60;;
24650;SDS011;12783;48.824;8.662;2024-01-30T12:45:15;23.33;;;14.45;;
24650;SDS011;12783;48.824;8.662;2024-01-30T12:47:47;6.18;;;2.78;;
24650;SDS011;12783;48.824;8.662;2024-01-30T12:50:29;5.15;;;3.45;;
24650;SDS011;12783;48.824;8.662;2024-01-30T12:52:57;4.40;;;2.60;;
24650;SDS011;12783;48.824;8.662;2024-01-30T12:55:25;5.38;;;2.80;;
24650;SDS011;12783;48.824;8.662;2024-01-30T12:57:55;3.83;;;2.95;;
24650;SDS011;12783;48.824;8.662;2024-01-30T13:00:22;4.07;;;2.58;;
24650;SDS011;12783;48.824;8.662;2024-01-30T13:02:49;4.68;;;2.08;;
24650;SDS011;12783;48.824;8.662;2024-01-30T13:05:16;4.07;;;1.73;;
24650;SDS011;12783;48.824;8.662;2024-01-30T13:07:44;3.30;;;1.80;;
24650;SDS011;12783;48.824;8.662;2024-01-30T13:10:11;3.30;;;1.92;;
24650;SDS011;12783;48.824;8.662;2024-01-30T13:12:38;7.72;;;1.98;;
24650;SDS011;12783;48.824;8.662;2024-01-30T13:15:05;4.25;;;1.90;;
24650;SDS011;12783;48.824;8.662;2024-01-30T13:17:32;5.78;;;3.58;;
24650;SDS011;12783;48.824;8.662;2024-01-30T13:19:59;6.80;;;1.95;;
24650;SDS011;12783;48.824;8.662;2024-01-30T13:22:36;6.57;;;2.70;;
24650;SDS011;12783;48.824;8.662;2024-01-30T13:25:05;4.28;;;2.95;;
24650;SDS011;12783;48.824;8.662;2024-01-30T13:27:33;5.03;;;3.17;;
24650;SDS011;12783;48.824;8.662;2024-01-30T13:30:01;3.83;;;2.28;;
24650;SDS011;12783;48.824;8.662;2024-01-30T13:32:28;2.70;;;1.80;;
24650;SDS011;12783;48.824;8.662;2024-01-30T13:34:55;4.78;;;2.35;;
24650;SDS011;12783;48.824;8.662;2024-01-30T13:37:22;3.97;;;2.03;;
24650;SDS011;12783;48.824;8.662;2024-01-30T13:39:50;4.80;;;2.50;;
24650;SDS011;12783;48.824;8.662;2024-01-30T13:42:17;6.85;;;2.38;;
24650;SDS011;12783;48.824;8.662;2024-01-30T13:44:44;7.22;;;2.05;;
24650;SDS011;12783;48.824;8.662;2024-01-30T13:47:11;4.18;;;2.10;;
24650;SDS011;12783;48.824;8.662;2024-01-30T13:49:38;3.65;;;2.22;;
24650;SDS011;12783;48.824;8.662;2024-01-30T13:52:05;3.78;;;2.30;;
24650;SDS011;12783;48.824;8.662;2024-01-30T13:54:32;3.72;;;2.50;;
24650;SDS011;12783;48.824;8.662;2024-01-30T13:56:59;5.53;;;2.00;;
24650;SDS011;12783;48.824;8.662;2024-01-30T13:59:26;5.50;;;2.40;;
24650;SDS011;12783;48.824;8.662;2024-01-30T14:01:53;4.43;;;2.20;;
24650;SDS011;12783;48.824;8.662;2024-01-30T14:04:20;6.10;;;2.83;;
24650;SDS011;12783;48.824;8.662;2024-01-30T14:06:48;7.72;;;3.40;;
24650;SDS011;12783;48.824;8.662;2024-01-30T14:09:25;8.48;;;3.40;;
24650;SDS011;12783;48.824;8.662;2024-01-30T14:11:53;8.50;;;3.42;;
24650;SDS011;12783;48.824;8.662;2024-01-30T14:14:20;5.40;;;2.85;;
24650;SDS011;12783;48.824;8.662;2024-01-30T14:16:47;11.15;;;4.95;;
24650;SDS011;12783;48.824;8.662;2024-01-30T14:19:13;8.80;;;4.40;;
24650;SDS011;12783;48.824;8.662;2024-01-30T14:21:40;8.00;;;4.03;;
24650;SDS011;12783;48.824;8.662;2024-01-30T14:24:09;7.10;;;3.70;;
24650;SDS011;12783;48.824;8.662;2024-01-30T14:26:36;10.18;;;3.08;;
24650;SDS011;12783;48.824;8.662;2024-01-30T14:29:03;9.68;;;4.13;;
24650;SDS011;12783;48.824;8.662;2024-01-30T14:31:30;7.43;;;3.97;;
24650;SDS011;12783;48.824;8.662;2024-01-30T14:33:57;7.65;;;3.38;;
24650;SDS011;12783;48.824;8.662;2024-01-30T14:36:25;7.15;;;3.58;;
24650;SDS011;12783;48.824;8.662;2024-01-30T14:38:54;7.70;;;4.38;;
24650;SDS011;12783;48.824;8.662;2024-01-30T14:41:21;4.88;;;2.90;;
24650;SDS011;12783;48.824;8.662;2024-01-30T14:43:48;8.57;;;3.22;;
24650;SDS011;12783;48.824;8.662;2024-01-30T14:46:16;9.90;;;2.85;;
24650;SDS011;12783;48.824;8.662;2024-01-30T14:48:43;4.25;;;2.80;;
24650;SDS011;12783;48.824;8.662;2024-01-30T14:51:11;6.15;;;3.00;;